createdAt,value
2019-04-26T00:00:39.589Z,94762.27
2019-04-26T00:01:44.815Z,94760.05
2019-04-26T00:02:50.062Z,94762.11
2019-04-26T00:03:53.758Z,94767.56
2019-04-26T00:04:58.679Z,94762.55
2019-04-26T00:06:02.190Z,94759.74
2019-04-26T00:07:05.738Z,94764.61
2019-04-26T00:08:10.386Z,94761.38
2019-04-26T00:09:24.864Z,94763.30
2019-04-26T00:10:46.001Z,94754.73
2019-04-26T00:11:54.384Z,94749.42
2019-04-26T00:13:08.287Z,94753.70
2019-04-26T00:14:16.338Z,94757.83
2019-04-26T00:15:37.640Z,94755.78
2019-04-26T00:16:43.085Z,94751.50
2019-04-26T00:17:48.241Z,94756.66
2019-04-26T00:18:51.697Z,94756.50
2019-04-26T00:19:55.203Z,94757.80
2019-04-26T00:20:59.006Z,94754.35
2019-04-26T00:22:02.516Z,94757.73
2019-04-26T00:23:06.365Z,94756.84
2019-04-26T00:24:11.636Z,94752.55
2019-04-26T00:25:15.314Z,94755.20
2019-04-26T00:26:19.690Z,94750.74
2019-04-26T00:27:23.286Z,94759.30
2019-04-26T00:28:26.725Z,94756.54
2019-04-26T00:29:30.173Z,94755.52
2019-04-26T00:30:33.686Z,94753.88
2019-04-26T00:31:37.121Z,94750.31
2019-04-26T00:32:40.799Z,94745.16
2019-04-26T00:33:44.310Z,94750.33
2019-04-26T00:34:47.919Z,94753.42
2019-04-26T00:35:51.499Z,94750.46
2019-04-26T00:36:54.935Z,94754.45
2019-04-26T00:37:58.475Z,94753.55
2019-04-26T00:39:01.959Z,94744.38
2019-04-26T00:40:05.950Z,94752.94
2019-04-26T00:41:09.868Z,94748.79
2019-04-26T00:42:14.604Z,94749.09
2019-04-26T00:43:18.549Z,94749.09
2019-04-26T00:44:22.861Z,94749.70
2019-04-26T00:45:29.409Z,94745.98
2019-04-26T00:46:35.630Z,94745.12
2019-04-26T00:47:39.430Z,94750.13
2019-04-26T00:48:44.578Z,94746.41
2019-04-26T00:49:48.276Z,94743.32
2019-04-26T00:50:53.569Z,94739.92
2019-04-26T00:51:57.541Z,94738.57
2019-04-26T00:53:02.224Z,94735.16
2019-04-26T00:54:06.599Z,94740.97
2019-04-26T00:55:10.292Z,94741.66
2019-04-26T00:56:14.651Z,94740.48
2019-04-26T00:57:18.732Z,94742.53
2019-04-26T00:58:24.447Z,94736.92
2019-04-26T00:59:28.267Z,94748.14
2019-04-26T01:00:31.858Z,94750.34
2019-04-26T01:01:37.098Z,94743.28
2019-04-26T01:02:44.674Z,94745.80
2019-04-26T01:03:48.217Z,94743.86
2019-04-26T01:04:51.652Z,94740.02
2019-04-26T01:06:00.155Z,94740.88
2019-04-26T01:07:01.449Z,94742.05
2019-04-26T01:08:05.006Z,94734.82
2019-04-26T01:09:08.531Z,94736.41
2019-04-26T01:10:13.595Z,94736.70
2019-04-26T01:11:17.663Z,94731.00
2019-04-26T01:12:21.864Z,94732.94
2019-04-26T01:13:26.153Z,94735.42
2019-04-26T01:14:29.648Z,94736.56
2019-04-26T01:15:33.172Z,94735.55
2019-04-26T01:16:36.617Z,94734.64
2019-04-26T01:17:40.200Z,94732.95
2019-04-26T01:18:46.975Z,94726.76
2019-04-26T01:19:52.296Z,94728.03
2019-04-26T01:20:58.799Z,94724.80
2019-04-26T01:22:05.293Z,94728.50
2019-04-26T01:23:11.850Z,94732.42
2019-04-26T01:24:18.306Z,94725.48
2019-04-26T01:25:36.202Z,94725.46
2019-04-26T01:26:40.497Z,94727.53
2019-04-26T01:27:44.075Z,94726.45
2019-04-26T01:28:53.418Z,94733.19
2019-04-26T01:29:59.893Z,94724.04
2019-04-26T01:31:05.138Z,94723.98
2019-04-26T01:32:15.656Z,94720.88
2019-04-26T01:33:20.118Z,94720.72
2019-04-26T01:34:24.215Z,94718.91
2019-04-26T01:35:28.396Z,94717.89
2019-04-26T01:36:33.415Z,94725.72
2019-04-26T01:37:39.993Z,94730.64
2019-04-26T01:38:45.724Z,94738.20
2019-04-26T01:39:53.872Z,94727.06
2019-04-26T01:40:59.085Z,94735.36
2019-04-26T01:42:22.231Z,94736.34
2019-04-26T01:43:33.453Z,94728.08
2019-04-26T01:44:50.166Z,94724.88
2019-04-26T01:46:10.689Z,94729.33
2019-04-26T01:47:14.449Z,94726.09
2019-04-26T01:48:40.482Z,94728.34
2019-04-26T01:49:44.157Z,94726.70
2019-04-26T01:50:47.837Z,94724.38
2019-04-26T01:52:00.101Z,94714.23
2019-04-26T01:53:05.080Z,94710.44
2019-04-26T01:54:11.192Z,94709.41
2019-04-26T01:55:15.770Z,94714.91
2019-04-26T01:56:23.437Z,94723.47
2019-04-26T01:57:30.025Z,94733.05
2019-04-26T01:58:33.703Z,94729.65
2019-04-26T01:59:42.032Z,94738.20
2019-04-26T02:00:53.296Z,94732.03
2019-04-26T02:02:01.043Z,94735.13
2019-04-26T02:03:06.482Z,94744.42
2019-04-26T02:04:10.084Z,94744.67
2019-04-26T02:05:25.808Z,94739.08
2019-04-26T02:06:33.559Z,94732.03
2019-04-26T02:07:41.436Z,94737.36
2019-04-26T02:08:45.052Z,94732.20
2019-04-26T02:09:48.554Z,94727.20
2019-04-26T02:10:52.071Z,94724.98
2019-04-26T02:11:55.576Z,94726.87
2019-04-26T02:12:59.782Z,94725.08
2019-04-26T02:14:03.378Z,94726.23
2019-04-26T02:15:07.960Z,94723.11
2019-04-26T02:16:11.470Z,94723.11
2019-04-26T02:17:15.058Z,94718.48
2019-04-26T02:18:18.658Z,94722.36
2019-04-26T02:19:23.306Z,94721.31
2019-04-26T02:20:54.470Z,94718.66
2019-04-26T02:22:15.623Z,94721.00
2019-04-26T02:23:36.954Z,94713.45
2019-04-26T02:24:44.821Z,94715.78
2019-04-26T02:25:48.499Z,94714.31
2019-04-26T02:26:52.573Z,94725.48
2019-04-26T02:27:56.083Z,94722.36
2019-04-26T02:28:59.682Z,94729.41
2019-04-26T02:30:05.213Z,94727.14
2019-04-26T02:31:08.782Z,94717.95
2019-04-26T02:32:12.356Z,94723.09
2019-04-26T02:33:16.035Z,94719.86
2019-04-26T02:34:19.633Z,94724.42
2019-04-26T02:35:23.316Z,94722.82
2019-04-26T02:36:46.413Z,94724.55
2019-04-26T02:37:34.603Z,94724.65
2019-04-26T02:38:38.417Z,94725.13
2019-04-26T02:39:42.259Z,94731.28
2019-04-26T02:40:45.758Z,94730.52
2019-04-26T02:41:51.928Z,94733.58
2019-04-26T02:42:55.430Z,94731.41
2019-04-26T02:44:01.948Z,94734.91
2019-04-26T02:45:15.545Z,94734.69
2019-04-26T02:46:42.044Z,94727.92
2019-04-26T02:48:05.050Z,94733.49
2019-04-26T02:49:13.417Z,94732.58
2019-04-26T02:50:28.354Z,94729.39
2019-04-26T02:51:43.332Z,94735.40
2019-04-26T02:53:05.817Z,94732.66
2019-04-26T02:54:22.645Z,94736.09
2019-04-26T02:55:54.807Z,94731.19
2019-04-26T02:57:00.274Z,94727.53
2019-04-26T02:58:04.177Z,94729.92
2019-04-26T02:59:13.438Z,94728.89
2019-04-26T03:00:19.795Z,94734.20
2019-04-26T03:01:23.300Z,94736.72
2019-04-26T03:02:30.191Z,94734.16
2019-04-26T03:03:34.382Z,94732.57
2019-04-26T03:04:41.338Z,94742.91
2019-04-26T03:05:46.008Z,94739.95
2019-04-26T03:07:03.135Z,94745.20
2019-04-26T03:07:58.207Z,94746.38
2019-04-26T03:09:06.530Z,94751.42
2019-04-26T03:10:10.419Z,94748.02
2019-04-26T03:11:17.684Z,94739.66
2019-04-26T03:12:24.272Z,94739.75
2019-04-26T03:13:36.323Z,94735.41
2019-04-26T03:14:45.182Z,94734.87
2019-04-26T03:16:01.781Z,94735.69
2019-04-26T03:17:07.193Z,94739.55
2019-04-26T03:18:35.178Z,94739.45
2019-04-26T03:19:57.610Z,94737.16
2019-04-26T03:21:10.144Z,94745.22
2019-04-26T03:22:28.703Z,94741.04
2019-04-26T03:23:57.006Z,94750.95
2019-04-26T03:25:10.810Z,94744.70
2019-04-26T03:26:25.980Z,94746.75
2019-04-26T03:27:33.392Z,94754.05
2019-04-26T03:28:43.446Z,94760.84
2019-04-26T03:30:17.415Z,94759.34
2019-04-26T03:31:17.964Z,94754.48
2019-04-26T03:32:33.829Z,94756.95
2019-04-26T03:33:54.619Z,94761.61
2019-04-26T03:35:17.708Z,94764.31
2019-04-26T03:36:49.536Z,94764.89
2019-04-26T03:38:03.113Z,94765.25
2019-04-26T03:39:10.770Z,94776.06
2019-04-26T03:40:48.611Z,94779.42
2019-04-26T03:42:05.545Z,94780.89
2019-04-26T03:43:31.203Z,94780.07
2019-04-26T03:44:44.232Z,94787.19
2019-04-26T03:45:53.580Z,94793.80
2019-04-26T03:47:00.065Z,94793.58
2019-04-26T03:48:15.553Z,94788.19
2019-04-26T03:49:44.173Z,94794.23
2019-04-26T03:50:56.957Z,94794.16
2019-04-26T03:52:35.288Z,94799.20
2019-04-26T03:53:42.425Z,94804.16
2019-04-26T03:54:49.563Z,94800.77
2019-04-26T03:56:08.194Z,94801.34
2019-04-26T03:57:28.069Z,94800.23
2019-04-26T03:58:55.165Z,94796.88
2019-04-26T04:00:23.687Z,94801.88
2019-04-26T04:01:30.819Z,94805.30
2019-04-26T04:02:53.641Z,94813.56
2019-04-26T04:04:16.733Z,94814.16
2019-04-26T04:05:27.685Z,94811.59
2019-04-26T04:06:52.393Z,94818.80
2019-04-26T04:07:47.207Z,94824.33
2019-04-26T04:08:48.624Z,94825.73
2019-04-26T04:09:55.101Z,94828.14
2019-04-26T04:11:01.593Z,94830.12
2019-04-26T04:12:13.988Z,94824.59
2019-04-26T04:13:43.270Z,94821.38
2019-04-26T04:15:05.543Z,94827.48
2019-04-26T04:16:14.969Z,94830.84
2019-04-26T04:17:29.130Z,94826.73
2019-04-26T04:18:40.169Z,94825.71
2019-04-26T04:20:12.259Z,94821.38
2019-04-26T04:21:45.108Z,94815.48
2019-04-26T04:22:57.630Z,94814.21
2019-04-26T04:24:12.646Z,94805.35
2019-04-26T04:25:30.857Z,94809.39
2019-04-26T04:26:55.120Z,94806.94
2019-04-26T04:28:07.343Z,94818.63
2019-04-26T04:29:19.440Z,94826.88
2019-04-26T04:30:31.649Z,94824.42
2019-04-26T04:31:45.702Z,94829.70
2019-04-26T04:33:06.898Z,94835.55
2019-04-26T04:34:45.286Z,94839.30
2019-04-26T04:35:52.936Z,94846.79
2019-04-26T04:36:59.528Z,94849.64
2019-04-26T04:38:09.925Z,94850.95
2019-04-26T04:39:19.463Z,94853.75
2019-04-26T04:40:49.995Z,94852.61
2019-04-26T04:41:58.091Z,94855.87
2019-04-26T04:43:20.972Z,94857.59
2019-04-26T04:45:10.935Z,94857.30
2019-04-26T04:46:30.841Z,94866.33
2019-04-26T04:47:51.257Z,94856.31
2019-04-26T04:49:15.363Z,94862.48
2019-04-26T04:50:23.470Z,94863.01
2019-04-26T04:51:57.017Z,94872.92
2019-04-26T04:53:15.065Z,94873.24
2019-04-26T04:54:21.624Z,94872.71
2019-04-26T04:55:39.209Z,94876.23
2019-04-26T04:56:54.487Z,94879.91
2019-04-26T04:58:06.983Z,94886.84
2019-04-26T04:59:16.185Z,94893.71
2019-04-26T05:00:29.670Z,94896.48
2019-04-26T05:01:52.641Z,94900.72
2019-04-26T05:03:15.014Z,94896.77
2019-04-26T05:04:36.610Z,94903.25
2019-04-26T05:05:44.975Z,94901.34
2019-04-26T05:07:04.865Z,94899.30
2019-04-26T05:08:39.875Z,94907.03
2019-04-26T05:09:49.496Z,94915.70
2019-04-26T05:11:07.280Z,94931.11
2019-04-26T05:12:18.910Z,94917.80
2019-04-26T05:13:25.400Z,94919.52
2019-04-26T05:14:31.947Z,94922.48
2019-04-26T05:16:11.340Z,94921.05
2019-04-26T05:17:46.612Z,94918.94
2019-04-26T05:19:29.129Z,94922.80
2019-04-26T05:20:38.356Z,94929.79
2019-04-26T05:21:59.672Z,94934.31
2019-04-26T05:23:06.160Z,94939.00
2019-04-26T05:24:17.809Z,94946.44
2019-04-26T05:25:49.662Z,94944.84
2019-04-26T05:27:25.737Z,94947.45
2019-04-26T05:29:01.912Z,94950.16
2019-04-26T05:30:18.079Z,94957.43
2019-04-26T05:31:29.051Z,94962.66
2019-04-26T05:32:41.484Z,94969.60
2019-04-26T05:33:48.842Z,94970.02
2019-04-26T05:34:57.001Z,94977.30
2019-04-26T05:36:18.980Z,94980.95
2019-04-26T05:37:28.410Z,94974.21
2019-04-26T05:38:40.579Z,94985.45
2019-04-26T05:40:07.879Z,94987.75
2019-04-26T05:41:36.995Z,94982.98
2019-04-26T05:43:16.385Z,94979.83
2019-04-26T05:45:07.432Z,94976.84
2019-04-26T05:46:26.975Z,94985.42
2019-04-26T05:48:03.129Z,94985.83
2019-04-26T05:49:32.118Z,94982.98
2019-04-26T05:51:11.393Z,94984.64
2019-04-26T05:52:35.762Z,94990.11
2019-04-26T05:54:05.852Z,94987.53
2019-04-26T05:55:25.144Z,94996.48
2019-04-26T05:56:51.550Z,94997.37
2019-04-26T05:58:08.630Z,94996.48
2019-04-26T05:59:17.539Z,94992.76
2019-04-26T06:00:37.404Z,94994.13
2019-04-26T06:01:56.852Z,94992.55
2019-04-26T06:03:39.290Z,94994.77
2019-04-26T06:05:20.062Z,95000.86
2019-04-26T06:06:28.442Z,95006.11
2019-04-26T06:08:30.730Z,95008.87
2019-04-26T06:09:42.455Z,95008.87
2019-04-26T06:10:49.469Z,95005.68
2019-04-26T06:12:34.697Z,95003.86
2019-04-26T06:13:54.154Z,95003.81
2019-04-26T06:15:16.916Z,95019.23
2019-04-26T06:16:50.535Z,95014.04
2019-04-26T06:18:02.532Z,95017.69
2019-04-26T06:19:13.545Z,95017.81
2019-04-26T06:20:37.855Z,95016.98
2019-04-26T06:21:44.342Z,95018.66
2019-04-26T06:23:07.062Z,95019.22
2019-04-26T06:24:28.173Z,95013.02
2019-04-26T06:25:44.983Z,95025.03
2019-04-26T06:27:13.717Z,95012.07
2019-04-26T06:28:29.021Z,95016.99
2019-04-26T06:30:04.152Z,95016.31
2019-04-26T06:31:22.385Z,95030.73
2019-04-26T06:32:55.994Z,95022.70
2019-04-26T06:33:55.154Z,95020.33
2019-04-26T06:35:20.174Z,95023.45
2019-04-26T06:36:28.553Z,95023.30
2019-04-26T06:38:03.990Z,95023.66
2019-04-26T06:39:21.542Z,95022.94
2019-04-26T06:40:42.097Z,95026.47
2019-04-26T06:42:07.273Z,95033.42
2019-04-26T06:43:15.395Z,95041.48
2019-04-26T06:44:23.547Z,95029.74
2019-04-26T06:45:42.833Z,95026.83
2019-04-26T06:46:59.825Z,95024.82
2019-04-26T06:48:10.903Z,95030.19
2019-04-26T06:49:21.743Z,95033.16
2019-04-26T06:50:29.925Z,95038.56
2019-04-26T06:51:47.782Z,95040.70
2019-04-26T06:52:59.726Z,95046.03
2019-04-26T06:54:09.700Z,95052.88
2019-04-26T06:55:20.651Z,95053.41
2019-04-26T06:56:37.640Z,95053.66
2019-04-26T06:57:59.404Z,95062.73
2019-04-26T06:59:20.464Z,95064.91
2019-04-26T07:00:28.741Z,95065.62
2019-04-26T07:01:38.181Z,95055.67
2019-04-26T07:03:17.578Z,95061.23
2019-04-26T07:04:42.986Z,95047.86
2019-04-26T07:05:55.430Z,95054.86
2019-04-26T07:07:19.581Z,95060.83
2019-04-26T07:08:57.549Z,95056.87
2019-04-26T07:10:04.610Z,95057.09
2019-04-26T07:11:51.547Z,95047.83
2019-04-26T07:13:35.473Z,95066.45
2019-04-26T07:15:07.961Z,95064.75
2019-04-26T07:16:42.921Z,95067.03
2019-04-26T07:18:11.452Z,95062.61
2019-04-26T07:19:17.939Z,95065.22
2019-04-26T07:20:34.315Z,95068.78
2019-04-26T07:21:51.016Z,95073.59
2019-04-26T07:23:24.625Z,95078.65
2019-04-26T07:24:56.537Z,95078.95
2019-04-26T07:26:18.959Z,95066.25
2019-04-26T07:27:34.203Z,95068.66
2019-04-26T07:28:52.460Z,95060.64
2019-04-26T07:30:10.376Z,95070.59
2019-04-26T07:31:25.355Z,95076.55
2019-04-26T07:32:52.670Z,95071.95
2019-04-26T07:34:05.167Z,95067.50
2019-04-26T07:35:25.984Z,95069.91
2019-04-26T07:36:51.805Z,95074.66
2019-04-26T07:38:19.093Z,95075.50
2019-04-26T07:39:30.147Z,95074.14
2019-04-26T07:40:49.847Z,95078.81
2019-04-26T07:42:19.618Z,95074.09
2019-04-26T07:44:01.009Z,95073.41
2019-04-26T07:45:18.642Z,95084.02
2019-04-26T07:46:57.831Z,95075.76
2019-04-26T07:48:26.452Z,95085.34
2019-04-26T07:50:05.997Z,95087.64
2019-04-26T07:51:28.425Z,95091.19
2019-04-26T07:53:07.690Z,95097.61
2019-04-26T07:54:42.497Z,95105.43
2019-04-26T07:56:07.183Z,95101.59
2019-04-26T07:57:42.512Z,95112.58
2019-04-26T07:59:08.796Z,95108.80
2019-04-26T08:00:44.361Z,95115.30
2019-04-26T08:01:58.791Z,95121.94
2019-04-26T08:03:15.628Z,95111.83
2019-04-26T08:04:23.775Z,95109.22
2019-04-26T08:05:43.639Z,95102.03
2019-04-26T08:06:55.667Z,95110.22
2019-04-26T08:08:01.988Z,95100.38
2019-04-26T08:09:25.051Z,95094.01
2019-04-26T08:10:22.286Z,95110.95
2019-04-26T08:11:37.387Z,95102.05
2019-04-26T08:12:44.194Z,95105.02
2019-04-26T08:14:08.589Z,95103.56
2019-04-26T08:15:16.797Z,95101.33
2019-04-26T08:16:29.823Z,95096.94
2019-04-26T08:17:40.640Z,95104.23
2019-04-26T08:18:51.726Z,95111.83
2019-04-26T08:19:58.885Z,95113.03
2019-04-26T08:21:12.433Z,95120.08
2019-04-26T08:22:20.440Z,95119.31
2019-04-26T08:23:39.695Z,95127.56
2019-04-26T08:24:37.205Z,95123.98
2019-04-26T08:25:42.581Z,95106.53
2019-04-26T08:26:49.088Z,95117.82
2019-04-26T08:27:55.585Z,95108.31
2019-04-26T08:29:02.134Z,95111.83
2019-04-26T08:30:19.047Z,95123.11
2019-04-26T08:31:25.635Z,95130.91
2019-04-26T08:32:33.372Z,95126.04
2019-04-26T08:33:48.442Z,95120.88
2019-04-26T08:34:49.715Z,95122.98
2019-04-26T08:35:56.337Z,95113.14
2019-04-26T08:37:03.985Z,95125.14
2019-04-26T08:38:18.087Z,95128.41
2019-04-26T08:39:32.349Z,95122.53
2019-04-26T08:40:33.308Z,95127.70
2019-04-26T08:41:39.139Z,95130.77
2019-04-26T08:42:57.285Z,95129.63
2019-04-26T08:44:08.594Z,95132.31
2019-04-26T08:45:22.471Z,95135.19
2019-04-26T08:46:36.253Z,95142.77
2019-04-26T08:47:51.099Z,95138.98
2019-04-26T08:49:13.727Z,95140.70
2019-04-26T08:50:19.640Z,95138.01
2019-04-26T08:51:24.891Z,95145.36
2019-04-26T08:52:31.574Z,95141.52
2019-04-26T08:53:38.045Z,95141.34
2019-04-26T08:54:45.449Z,95131.14
2019-04-26T08:55:51.572Z,95136.12
2019-04-26T08:57:01.084Z,95139.56
2019-04-26T08:58:10.481Z,95148.73
2019-04-26T08:59:25.835Z,95143.17
2019-04-26T09:00:42.852Z,95148.31
2019-04-26T09:01:53.567Z,95148.69
2019-04-26T09:03:11.577Z,95159.09
2019-04-26T09:04:20.426Z,95139.78
2019-04-26T09:05:45.650Z,95145.48
2019-04-26T09:07:02.275Z,95143.66
2019-04-26T09:08:08.614Z,95144.69
2019-04-26T09:09:19.776Z,95155.88
2019-04-26T09:10:25.954Z,95147.61
2019-04-26T09:11:33.834Z,95147.66
2019-04-26T09:12:38.167Z,95145.07
2019-04-26T09:13:44.746Z,95155.93
2019-04-26T09:14:51.221Z,95144.58
2019-04-26T09:16:09.461Z,95148.05
2019-04-26T09:17:13.127Z,95153.00
2019-04-26T09:18:16.593Z,95155.11
2019-04-26T09:19:20.161Z,95156.50
2019-04-26T09:20:29.714Z,95157.98
2019-04-26T09:21:30.827Z,95156.55
2019-04-26T09:22:50.769Z,95152.87
2019-04-26T09:24:11.790Z,95160.98
2019-04-26T09:25:16.999Z,95161.09
2019-04-26T09:26:28.274Z,95170.86
2019-04-26T09:27:36.164Z,95173.61
2019-04-26T09:28:52.877Z,95189.91
2019-04-26T09:30:05.007Z,95176.31
2019-04-26T09:31:10.030Z,95172.05
2019-04-26T09:32:18.040Z,95180.79
2019-04-26T09:33:26.157Z,95181.77
2019-04-26T09:34:33.944Z,95183.36
2019-04-26T09:35:37.439Z,95186.57
2019-04-26T09:36:41.005Z,95182.95
2019-04-26T09:37:44.510Z,95179.96
2019-04-26T09:38:48.035Z,95181.76
2019-04-26T09:39:51.483Z,95186.28
2019-04-26T09:40:56.256Z,95192.82
2019-04-26T09:42:05.960Z,95195.23
2019-04-26T09:43:14.960Z,95190.02
2019-04-26T09:44:27.354Z,95190.32
2019-04-26T09:45:50.325Z,95186.19
2019-04-26T09:47:07.547Z,95189.23
2019-04-26T09:48:15.418Z,95206.27
2019-04-26T09:49:20.640Z,95200.84
2019-04-26T09:50:40.505Z,95198.34
2019-04-26T09:51:44.008Z,95201.08
2019-04-26T09:52:52.126Z,95204.06
2019-04-26T09:53:55.554Z,95198.60
2019-04-26T09:54:59.005Z,95198.45
2019-04-26T09:56:02.611Z,95203.03
2019-04-26T09:57:06.113Z,95198.73
2019-04-26T09:58:09.773Z,95199.37
2019-04-26T09:59:13.284Z,95208.16
2019-04-26T10:00:19.206Z,95211.95
2019-04-26T10:01:24.059Z,95198.66
2019-04-26T10:02:29.507Z,95204.28
2019-04-26T10:03:34.409Z,95205.39
2019-04-26T10:04:37.951Z,95205.01
2019-04-26T10:05:41.534Z,95213.44
2019-04-26T10:06:44.959Z,95202.96
2019-04-26T10:07:48.461Z,95215.45
2019-04-26T10:08:52.516Z,95210.16
2019-04-26T10:10:00.783Z,95207.41
2019-04-26T10:11:01.292Z,95218.76
2019-04-26T10:12:12.444Z,95207.72
2019-04-26T10:13:33.639Z,95213.97
2019-04-26T10:14:41.707Z,95224.44
2019-04-26T10:15:52.360Z,95208.51
2019-04-26T10:16:59.848Z,95214.59
2019-04-26T10:18:04.224Z,95212.30
2019-04-26T10:19:09.395Z,95211.34
2019-04-26T10:20:13.371Z,95212.11
2019-04-26T10:21:16.879Z,95205.36
2019-04-26T10:22:20.682Z,95219.11
2019-04-26T10:23:24.118Z,95220.48
2019-04-26T10:24:27.556Z,95225.41
2019-04-26T10:25:31.012Z,95219.16
2019-04-26T10:26:34.442Z,95213.16
2019-04-26T10:27:40.761Z,95222.77
2019-04-26T10:28:43.037Z,95227.58
2019-04-26T10:29:46.465Z,95231.70
2019-04-26T10:30:50.287Z,95231.79
2019-04-26T10:31:53.816Z,95229.30
2019-04-26T10:32:58.400Z,95226.45
2019-04-26T10:34:02.527Z,95217.92
2019-04-26T10:35:06.803Z,95222.61
2019-04-26T10:36:10.261Z,95219.43
2019-04-26T10:37:13.690Z,95223.62
2019-04-26T10:38:19.263Z,95217.84
2019-04-26T10:39:23.426Z,95227.33
2019-04-26T10:40:35.232Z,95227.92
2019-04-26T10:41:32.211Z,95225.52
2019-04-26T10:42:35.709Z,95237.92
2019-04-26T10:43:39.377Z,95234.86
2019-04-26T10:44:42.893Z,95236.30
2019-04-26T10:45:53.493Z,95234.47
2019-04-26T10:46:55.595Z,95237.33
2019-04-26T10:47:56.752Z,95241.91
2019-04-26T10:49:08.864Z,95242.08
2019-04-26T10:50:07.804Z,95242.47
2019-04-26T10:51:13.011Z,95242.47
2019-04-26T10:52:22.215Z,95239.03
2019-04-26T10:53:45.186Z,95241.41
2019-04-26T10:54:55.900Z,95240.51
2019-04-26T10:56:00.993Z,95231.02
2019-04-26T10:57:12.110Z,95235.38
2019-04-26T10:58:27.209Z,95231.33
2019-04-26T10:59:47.025Z,95234.89
2019-04-26T11:01:04.330Z,95240.06
2019-04-26T11:02:11.298Z,95248.36
2019-04-26T11:03:14.991Z,95244.00
2019-04-26T11:04:18.581Z,95242.48
2019-04-26T11:05:22.010Z,95235.63
2019-04-26T11:06:27.825Z,95241.28
2019-04-26T11:07:31.091Z,95259.39
2019-04-26T11:08:34.592Z,95259.36
2019-04-26T11:09:38.114Z,95262.09
2019-04-26T11:10:48.495Z,95274.25
2019-04-26T11:11:46.935Z,95274.04
2019-04-26T11:12:50.430Z,95276.17
2019-04-26T11:13:53.859Z,95278.06
2019-04-26T11:14:58.227Z,95270.41
2019-04-26T11:16:02.491Z,95279.89
2019-04-26T11:17:11.546Z,95276.21
2019-04-26T11:18:12.957Z,95274.83
2019-04-26T11:19:16.530Z,95278.38
2019-04-26T11:20:20.029Z,95279.30
2019-04-26T11:21:23.525Z,95286.86
2019-04-26T11:22:29.216Z,95294.59
2019-04-26T11:23:32.452Z,95297.20
2019-04-26T11:24:35.881Z,95295.35
2019-04-26T11:25:39.387Z,95298.97
2019-04-26T11:26:42.950Z,95290.68
2019-04-26T11:27:48.537Z,95290.70
2019-04-26T11:28:55.666Z,95301.01
2019-04-26T11:29:59.644Z,95298.73
2019-04-26T11:31:02.013Z,95301.93
2019-04-26T11:32:05.679Z,95292.85
2019-04-26T11:33:11.164Z,95298.94
2019-04-26T11:34:14.288Z,95290.70
2019-04-26T11:35:17.790Z,95296.50
2019-04-26T11:36:21.235Z,95289.98
2019-04-26T11:37:24.653Z,95292.78
2019-04-26T11:38:31.376Z,95287.94
2019-04-26T11:39:36.592Z,95287.77
2019-04-26T11:40:38.585Z,95288.19
2019-04-26T11:41:42.076Z,95283.77
2019-04-26T11:42:45.876Z,95289.25
2019-04-26T11:43:52.888Z,95300.88
2019-04-26T11:45:05.548Z,95315.34
2019-04-26T11:46:04.686Z,95326.20
2019-04-26T11:47:07.896Z,95319.63
2019-04-26T11:48:11.522Z,95328.64
2019-04-26T11:49:15.114Z,95348.59
2019-04-26T11:50:18.722Z,95341.06
2019-04-26T11:51:23.504Z,95342.55
2019-04-26T11:52:27.423Z,95349.88
2019-04-26T11:53:33.284Z,95357.96
2019-04-26T11:54:36.050Z,95364.91
2019-04-26T11:55:39.567Z,95364.92
2019-04-26T11:56:42.988Z,95368.67
2019-04-26T11:57:47.561Z,95365.69
2019-04-26T11:58:52.551Z,95373.20
2019-04-26T11:59:56.888Z,95374.11
2019-04-26T12:01:01.982Z,95369.98
2019-04-26T12:02:05.562Z,95378.41
2019-04-26T12:03:08.996Z,95378.42
2019-04-26T12:04:14.250Z,95391.94
2019-04-26T12:05:31.195Z,95392.11
2019-04-26T12:06:42.342Z,95385.40
2019-04-26T12:07:49.853Z,95388.59
2019-04-26T12:08:54.981Z,95396.99
2019-04-26T12:10:05.843Z,95384.79
2019-04-26T12:11:17.842Z,95382.32
2019-04-26T12:12:14.369Z,95381.60
2019-04-26T12:13:21.276Z,95376.13
2019-04-26T12:14:23.078Z,95366.20
2019-04-26T12:15:30.337Z,95374.25
2019-04-26T12:16:31.880Z,95363.39
2019-04-26T12:17:36.763Z,95349.85
2019-04-26T12:18:43.908Z,95350.63
2019-04-26T12:19:48.140Z,95373.46
2019-04-26T12:20:50.612Z,95355.84
2019-04-26T12:21:54.034Z,95363.30
2019-04-26T12:22:57.471Z,95380.55
2019-04-26T12:24:00.962Z,95380.55
2019-04-26T12:25:07.246Z,95386.23
2019-04-26T12:26:10.482Z,95388.83
2019-04-26T12:27:14.069Z,95390.52
2019-04-26T12:28:17.517Z,95390.92
2019-04-26T12:29:21.201Z,95405.02
2019-04-26T12:30:26.703Z,95403.88
2019-04-26T12:31:29.877Z,95425.59
2019-04-26T12:32:33.574Z,95417.28
2019-04-26T12:33:39.108Z,95417.28
2019-04-26T12:34:42.146Z,95433.75
2019-04-26T12:35:45.742Z,95441.03
2019-04-26T12:36:49.238Z,95441.03
2019-04-26T12:37:54.690Z,95448.38
2019-04-26T12:38:58.238Z,95448.38
2019-04-26T12:40:07.176Z,95452.70
2019-04-26T12:41:11.464Z,95462.40
2019-04-26T12:42:14.653Z,95453.56
2019-04-26T12:43:20.185Z,95455.84
2019-04-26T12:44:24.886Z,95444.16
2019-04-26T12:45:32.683Z,95444.16
2019-04-26T12:46:37.769Z,95451.86
2019-04-26T12:47:48.737Z,95446.58
2019-04-26T12:48:52.238Z,95448.86
2019-04-26T12:49:58.877Z,95446.42
2019-04-26T12:51:01.060Z,95437.58
2019-04-26T12:52:04.694Z,95437.58
2019-04-26T12:53:08.186Z,95447.33
2019-04-26T12:54:11.861Z,95447.33
2019-04-26T12:55:18.483Z,95467.42
2019-04-26T12:56:20.499Z,95456.00
2019-04-26T12:57:23.930Z,95456.00
2019-04-26T12:58:27.427Z,95467.44
2019-04-26T12:59:43.365Z,95467.44
2019-04-26T13:00:37.450Z,95463.16
2019-04-26T13:01:42.659Z,95469.38
2019-04-26T13:02:50.071Z,95468.36
2019-04-26T13:04:04.591Z,95464.05
2019-04-26T13:05:08.262Z,95458.63
2019-04-26T13:06:11.916Z,95455.88
2019-04-26T13:07:24.008Z,95459.13
2019-04-26T13:08:24.632Z,95460.30
2019-04-26T13:09:28.371Z,95467.55
2019-04-26T13:10:36.922Z,95477.62
2019-04-26T13:11:48.951Z,95477.54
2019-04-26T13:12:51.806Z,95482.28
2019-04-26T13:13:56.870Z,95492.23
2019-04-26T13:15:21.434Z,95492.47
2019-04-26T13:16:29.231Z,95492.47
2019-04-26T13:17:37.470Z,95486.06
2019-04-26T13:18:44.891Z,95484.16
2019-04-26T13:19:49.584Z,95479.56
2019-04-26T13:20:51.680Z,95476.06
2019-04-26T13:21:55.110Z,95476.13
2019-04-26T13:22:58.576Z,95477.06
2019-04-26T13:24:04.450Z,95470.22
2019-04-26T13:25:15.714Z,95464.55
2019-04-26T13:26:12.949Z,95465.98
2019-04-26T13:27:16.511Z,95460.61
2019-04-26T13:28:21.784Z,95460.02
2019-04-26T13:29:27.310Z,95462.80
2019-04-26T13:30:33.110Z,95457.92
2019-04-26T13:31:35.610Z,95462.46
2019-04-26T13:32:39.053Z,95452.81
2019-04-26T13:33:42.489Z,95452.81
2019-04-26T13:34:45.911Z,95446.73
2019-04-26T13:36:02.229Z,95446.73
2019-04-26T13:36:54.637Z,95452.23
2019-04-26T13:37:58.105Z,95455.97
2019-04-26T13:39:01.560Z,95465.89
2019-04-26T13:40:07.243Z,95469.02
2019-04-26T13:41:10.747Z,95475.73
2019-04-26T13:42:17.435Z,95475.73
2019-04-26T13:43:22.656Z,95476.17
2019-04-26T13:44:42.392Z,95476.17
2019-04-26T13:46:03.142Z,95490.44
2019-04-26T13:47:22.840Z,95490.44
2019-04-26T13:48:43.724Z,95499.72
2019-04-26T13:50:05.464Z,95515.89
2019-04-26T13:51:10.603Z,95523.44
2019-04-26T13:52:14.100Z,95519.98
2019-04-26T13:53:17.534Z,95521.69
2019-04-26T13:54:22.713Z,95526.36